createdAt,value
2018-07-10T00:03:18.572Z,101776.62
2018-07-10T00:06:10.693Z,101777.67
2018-07-10T00:10:10.366Z,101774.05
2018-07-10T00:12:38.999Z,101778.47
2018-07-10T00:15:07.557Z,101774.84
2018-07-10T00:17:36.393Z,101775.34
2018-07-10T00:20:04.947Z,101776.09
2018-07-10T00:22:33.686Z,101771.95
2018-07-10T00:25:02.117Z,101767.67
2018-07-10T00:27:30.928Z,101759.70
2018-07-10T00:29:59.435Z,101762.69
2018-07-10T00:32:27.854Z,101771.51
2018-07-10T00:34:56.669Z,101767.67
2018-07-10T00:37:25.545Z,101763.23
2018-07-10T00:39:54.338Z,101766.70
2018-07-10T00:42:23.000Z,101763.66
2018-07-10T00:44:51.392Z,101766.21
2018-07-10T00:47:19.857Z,101767.05
2018-07-10T00:49:48.762Z,101761.45
2018-07-10T00:52:29.661Z,101756.44
2018-07-10T00:54:58.802Z,101760.17
2018-07-10T00:57:27.156Z,101762.33
2018-07-10T00:59:55.753Z,101754.45
2018-07-10T01:02:24.323Z,101753.70
2018-07-10T01:04:52.864Z,101749.59
2018-07-10T01:07:21.781Z,101744.19
2018-07-10T01:09:50.245Z,101745.67
2018-07-10T01:12:18.860Z,101745.77
2018-07-10T01:14:47.438Z,101744.62
2018-07-10T01:17:15.966Z,101744.02
2018-07-10T01:19:44.415Z,101748.61
2018-07-10T01:22:13.357Z,101745.08
2018-07-10T01:24:41.881Z,101738.39
2018-07-10T01:27:10.841Z,101743.36
2018-07-10T01:29:44.896Z,101747.39
2018-07-10T01:32:13.568Z,101739.78
2018-07-10T01:34:42.195Z,101732.16
2018-07-10T01:37:10.812Z,101729.81
2018-07-10T01:39:39.708Z,101728.01
2018-07-10T01:42:08.253Z,101728.77
2018-07-10T01:44:36.667Z,101722.77
2018-07-10T01:47:05.243Z,101723.69
2018-07-10T01:49:33.997Z,101722.23
2018-07-10T01:52:02.512Z,101721.20
2018-07-10T01:54:31.207Z,101722.39
2018-07-10T01:56:59.705Z,101724.50
2018-07-10T01:59:28.730Z,101727.92
2018-07-10T02:01:57.749Z,101720.55
2018-07-10T02:04:26.368Z,101726.97
2018-07-10T02:06:55.025Z,101727.08
2018-07-10T02:09:23.631Z,101720.39
2018-07-10T02:11:52.212Z,101716.13
2018-07-10T02:14:20.700Z,101718.50
2018-07-10T02:16:49.685Z,101726.64
2018-07-10T02:19:18.651Z,101716.09
2018-07-10T02:21:47.423Z,101716.59
2018-07-10T02:24:21.549Z,101711.31
2018-07-10T02:26:50.447Z,101717.72
2018-07-10T02:29:19.343Z,101708.39
2018-07-10T02:31:48.824Z,101702.85
2018-07-10T02:34:17.502Z,101708.77
2018-07-10T02:36:46.577Z,101698.55
2018-07-10T02:39:16.867Z,101699.05
2018-07-10T02:41:45.533Z,101706.59
2018-07-10T02:44:14.029Z,101701.73
2018-07-10T02:46:42.661Z,101704.55
2018-07-10T02:49:21.363Z,101709.08
2018-07-10T02:51:56.284Z,101701.31
2018-07-10T02:54:27.438Z,101706.00
2018-07-10T02:56:57.377Z,101701.12
2018-07-10T02:59:38.273Z,101700.27
2018-07-10T03:02:28.657Z,101698.62
2018-07-10T03:05:00.923Z,101695.84
2018-07-10T03:07:31.377Z,101699.62
2018-07-10T03:10:01.498Z,101691.81
2018-07-10T03:12:32.465Z,101695.04
2018-07-10T03:15:11.489Z,101700.23
2018-07-10T03:17:40.405Z,101689.62
2018-07-10T03:20:09.373Z,101689.50
2018-07-10T03:22:38.080Z,101682.08
2018-07-10T03:25:07.999Z,101692.73
2018-07-10T03:27:36.823Z,101689.92
2018-07-10T03:30:05.688Z,101687.73
2018-07-10T03:32:34.192Z,101684.81
2018-07-10T03:35:02.657Z,101695.13
2018-07-10T03:37:31.465Z,101695.30
2018-07-10T03:39:59.976Z,101699.16
2018-07-10T03:42:28.885Z,101697.51
2018-07-10T03:44:57.448Z,101689.62
2018-07-10T03:47:27.270Z,101689.42
2018-07-10T03:49:55.694Z,101690.59
2018-07-10T03:52:32.304Z,101698.23
2018-07-10T03:55:13.930Z,101695.30
2018-07-10T03:57:42.564Z,101692.81
2018-07-10T04:00:13.212Z,101691.97
2018-07-10T04:02:48.074Z,101692.23
2018-07-10T04:05:18.434Z,101695.63
2018-07-10T04:07:51.665Z,101697.13
2018-07-10T04:10:34.046Z,101702.23
2018-07-10T04:13:15.801Z,101697.92
2018-07-10T04:15:47.593Z,101705.66
2018-07-10T04:18:20.505Z,101703.84
2018-07-10T04:21:05.518Z,101696.92
2018-07-10T04:23:37.975Z,101694.52
2018-07-10T04:26:17.072Z,101696.31
2018-07-10T04:28:58.081Z,101693.55
2018-07-10T04:31:35.012Z,101694.70
2018-07-10T04:34:03.804Z,101691.46
2018-07-10T04:36:32.457Z,101680.32
2018-07-10T04:39:01.137Z,101677.95
2018-07-10T04:41:31.901Z,101678.55
2018-07-10T04:44:10.688Z,101678.44
2018-07-10T04:46:49.428Z,101678.73
2018-07-10T04:49:44.113Z,101677.19
2018-07-10T04:52:27.721Z,101675.61
2018-07-10T04:55:06.711Z,101678.32
2018-07-10T04:58:01.056Z,101679.72
2018-07-10T05:00:30.933Z,101680.89
2018-07-10T05:03:00.731Z,101676.36
2018-07-10T05:05:32.200Z,101670.24
2018-07-10T05:08:04.029Z,101671.59
2018-07-10T05:10:34.349Z,101668.02
2018-07-10T05:13:05.252Z,101665.70
2018-07-10T05:15:34.868Z,101668.47
2018-07-10T05:18:08.025Z,101668.52
2018-07-10T05:20:37.630Z,101666.18
2018-07-10T05:23:06.527Z,101660.52
2018-07-10T05:25:37.683Z,101664.48
2018-07-10T05:28:06.283Z,101655.59
2018-07-10T05:30:36.709Z,101662.09
2018-07-10T05:33:05.873Z,101653.70
2018-07-10T05:35:34.451Z,101657.39
2018-07-10T05:38:05.342Z,101653.70
2018-07-10T05:40:34.352Z,101648.07
2018-07-10T05:43:08.369Z,101652.31
2018-07-10T05:45:38.840Z,101645.15
2018-07-10T05:48:08.100Z,101643.59
2018-07-10T05:50:38.737Z,101639.11
2018-07-10T05:53:10.570Z,101638.39
2018-07-10T05:55:48.564Z,101635.30
2018-07-10T05:58:17.338Z,101632.33
2018-07-10T06:00:46.038Z,101628.70
2018-07-10T06:03:14.942Z,101630.86
2018-07-10T06:05:43.761Z,101627.63
2018-07-10T06:08:14.001Z,101634.91
2018-07-10T06:10:43.630Z,101633.09
2018-07-10T06:13:12.499Z,101630.69
2018-07-10T06:15:41.105Z,101629.78
2018-07-10T06:18:09.505Z,101631.44
2018-07-10T06:20:40.360Z,101631.02
2018-07-10T06:23:08.936Z,101623.23
2018-07-10T06:25:37.700Z,101623.80
2018-07-10T06:28:11.724Z,101612.94
2018-07-10T06:30:43.804Z,101616.02
2018-07-10T06:33:21.048Z,101622.67
2018-07-10T06:36:04.985Z,101623.49
2018-07-10T06:38:37.137Z,101623.36
2018-07-10T06:41:05.986Z,101617.42
2018-07-10T06:43:49.301Z,101617.10
2018-07-10T06:46:26.617Z,101609.79
2018-07-10T06:48:59.420Z,101616.73
2018-07-10T06:51:28.238Z,101609.97
2018-07-10T06:54:01.717Z,101601.84
2018-07-10T06:56:30.400Z,101612.87
2018-07-10T06:58:58.923Z,101607.36
2018-07-10T07:01:27.266Z,101611.94
2018-07-10T07:04:00.590Z,101605.30
2018-07-10T07:06:30.024Z,101608.84
2018-07-10T07:08:58.689Z,101619.48
2018-07-10T07:11:27.229Z,101617.38
2018-07-10T07:13:56.463Z,101614.69
2018-07-10T07:16:25.289Z,101613.38
2018-07-10T07:18:54.248Z,101613.20
2018-07-10T07:21:22.703Z,101616.34
2018-07-10T07:23:51.306Z,101608.41
2018-07-10T07:26:19.931Z,101603.05
2018-07-10T07:28:49.578Z,101601.30
2018-07-10T07:31:18.678Z,101603.89
2018-07-10T07:33:47.353Z,101595.03
2018-07-10T07:36:15.880Z,101587.48
2018-07-10T07:38:44.352Z,101592.08
2018-07-10T07:41:12.788Z,101580.98
2018-07-10T07:43:41.424Z,101578.95
2018-07-10T07:46:09.949Z,101570.10
2018-07-10T07:48:38.530Z,101576.08
2018-07-10T07:51:07.147Z,101580.28
2018-07-10T07:53:36.096Z,101583.99
2018-07-10T07:56:05.484Z,101586.20
2018-07-10T07:58:34.717Z,101573.89
2018-07-10T08:01:03.413Z,101578.47
2018-07-10T08:03:32.340Z,101573.05
2018-07-10T08:06:00.972Z,101572.37
2018-07-10T08:08:30.057Z,101575.50
2018-07-10T08:10:58.723Z,101573.26
2018-07-10T08:13:27.393Z,101568.21
2018-07-10T08:15:56.001Z,101574.78
2018-07-10T08:18:24.639Z,101571.59
2018-07-10T08:20:53.325Z,101562.19
2018-07-10T08:23:21.975Z,101559.11
2018-07-10T08:25:50.704Z,101564.42
2018-07-10T08:28:19.768Z,101554.75
2018-07-10T08:30:48.749Z,101555.93
2018-07-10T08:33:17.771Z,101549.56
2018-07-10T08:35:46.354Z,101549.73
2018-07-10T08:38:37.560Z,101547.98
2018-07-10T08:41:07.069Z,101550.39
2018-07-10T08:43:35.602Z,101548.08
2018-07-10T08:46:04.187Z,101550.03
2018-07-10T08:48:32.599Z,101541.80
2018-07-10T08:51:01.620Z,101544.44
2018-07-10T08:53:30.353Z,101547.73
2018-07-10T08:55:59.301Z,101554.00
2018-07-10T08:58:28.102Z,101537.34
2018-07-10T09:00:56.918Z,101534.74
2018-07-10T09:03:25.333Z,101537.38
2018-07-10T09:05:53.932Z,101532.02
2018-07-10T09:08:22.509Z,101538.13
2018-07-10T09:10:51.206Z,101535.05
2018-07-10T09:13:20.253Z,101527.17
2018-07-10T09:15:49.003Z,101525.77
2018-07-10T09:18:17.991Z,101531.10
2018-07-10T09:20:50.510Z,101524.59
2018-07-10T09:23:20.193Z,101528.43
2018-07-10T09:25:54.268Z,101522.01
2018-07-10T09:28:24.007Z,101521.70
2018-07-10T09:30:52.821Z,101514.73
2018-07-10T09:33:21.496Z,101516.84
2018-07-10T09:35:50.059Z,101514.66
2018-07-10T09:38:18.608Z,101508.63
2018-07-10T09:40:47.427Z,101512.40
2018-07-10T09:43:16.317Z,101500.30
2018-07-10T09:45:45.352Z,101505.83
2018-07-10T09:48:14.130Z,101500.16
2018-07-10T09:53:03.053Z,101502.88
2018-07-10T09:55:32.325Z,101494.83
2018-07-10T09:58:01.272Z,101498.12
2018-07-10T10:00:37.010Z,101498.03
2018-07-10T10:03:05.696Z,101493.02
2018-07-10T10:05:39.469Z,101500.67
2018-07-10T10:08:08.529Z,101487.89
2018-07-10T10:10:38.332Z,101479.16
2018-07-10T10:13:07.613Z,101473.86
2018-07-10T10:15:36.939Z,101468.03
2018-07-10T10:18:08.054Z,101458.27
2018-07-10T10:20:38.496Z,101458.75
2018-07-10T10:23:08.283Z,101462.42
2018-07-10T10:25:39.285Z,101461.45
2018-07-10T10:28:09.632Z,101459.88
2018-07-10T10:30:41.067Z,101464.24
2018-07-10T10:33:10.309Z,101463.82
2018-07-10T10:35:39.463Z,101446.59
2018-07-10T10:38:08.093Z,101449.94
2018-07-10T10:40:38.375Z,101451.51
2018-07-10T10:43:10.166Z,101439.45
2018-07-10T10:45:43.185Z,101441.98
2018-07-10T10:48:13.809Z,101445.62
2018-07-10T10:50:48.890Z,101445.46
2018-07-10T10:53:19.158Z,101442.83
2018-07-10T10:55:47.999Z,101440.20
2018-07-10T10:58:17.659Z,101439.02
2018-07-10T11:00:46.444Z,101428.47
2018-07-10T11:03:15.239Z,101431.56
2018-07-10T11:05:44.903Z,101427.13
2018-07-10T11:08:14.143Z,101422.40
2018-07-10T11:10:44.193Z,101413.53
2018-07-10T11:13:15.915Z,101409.48
2018-07-10T11:15:47.377Z,101403.31
2018-07-10T11:20:30.666Z,101398.24
2018-07-10T11:23:06.368Z,101397.95
2018-07-10T11:25:42.240Z,101398.94
2018-07-10T11:28:12.868Z,101401.41
2018-07-10T11:30:42.011Z,101399.95
2018-07-10T11:33:11.166Z,101406.77
2018-07-10T11:35:39.834Z,101409.58
2018-07-10T11:38:12.483Z,101410.77
2018-07-10T11:40:44.924Z,101406.90
2018-07-10T11:43:13.853Z,101411.62
2018-07-10T11:45:42.625Z,101413.89
2018-07-10T11:48:11.285Z,101412.45
2018-07-10T11:50:40.123Z,101415.92
2018-07-10T11:53:08.681Z,101418.98
2018-07-10T11:55:37.373Z,101420.82
2018-07-10T11:58:07.556Z,101426.00
2018-07-10T12:00:37.143Z,101416.87
2018-07-10T12:03:06.855Z,101417.42
2018-07-10T12:05:38.655Z,101425.19
2018-07-10T12:08:07.688Z,101422.00
2018-07-10T12:10:37.271Z,101420.14
2018-07-10T12:13:06.267Z,101421.59
2018-07-10T12:15:35.113Z,101422.52
2018-07-10T12:18:03.929Z,101419.07
2018-07-10T12:20:39.904Z,101413.57
2018-07-10T12:23:10.899Z,101410.03
2018-07-10T12:25:43.450Z,101404.27
2018-07-10T12:28:13.568Z,101403.47
2018-07-10T12:30:42.480Z,101397.55
2018-07-10T12:33:11.150Z,101398.12
2018-07-10T12:35:39.599Z,101386.42
2018-07-10T12:38:08.149Z,101386.00
2018-07-10T12:40:36.597Z,101387.43
2018-07-10T12:43:05.541Z,101386.22
2018-07-10T12:45:34.102Z,101372.81
2018-07-10T12:48:03.427Z,101362.12
2018-07-10T12:50:32.205Z,101364.78
2018-07-10T12:53:01.016Z,101364.80
2018-07-10T12:55:29.665Z,101365.55
2018-07-10T12:57:59.216Z,101368.17
2018-07-10T13:00:30.749Z,101361.09
2018-07-10T13:03:01.229Z,101356.06
2018-07-10T13:05:37.197Z,101340.59
2018-07-10T13:08:05.881Z,101342.52
2018-07-10T13:10:34.832Z,101330.52
2018-07-10T13:13:03.580Z,101331.43
2018-07-10T13:15:32.300Z,101333.89
2018-07-10T13:18:01.134Z,101328.37
2018-07-10T13:20:30.069Z,101324.95
2018-07-10T13:22:58.648Z,101319.03
2018-07-10T13:25:27.454Z,101307.78
2018-07-10T13:27:56.356Z,101308.80
2018-07-10T13:30:25.365Z,101306.36
2018-07-10T13:32:54.230Z,101306.16
2018-07-10T13:35:22.837Z,101291.75
2018-07-10T13:37:51.638Z,101292.96
2018-07-10T13:40:20.323Z,101281.39
2018-07-10T13:42:59.429Z,101286.58
2018-07-10T13:45:29.817Z,101276.02
2018-07-10T13:48:07.572Z,101274.66
2018-07-10T13:50:36.695Z,101278.34
2018-07-10T13:53:05.554Z,101274.85
2018-07-10T13:55:34.240Z,101265.81
2018-07-10T13:58:10.795Z,101266.09
2018-07-10T14:00:43.639Z,101263.74
2018-07-10T14:03:12.248Z,101265.14
2018-07-10T14:05:41.392Z,101255.69
2018-07-10T14:08:09.994Z,101252.48
2018-07-10T14:10:39.881Z,101250.77
2018-07-10T14:13:08.688Z,101239.05
2018-07-10T14:15:37.425Z,101236.39
2018-07-10T14:18:06.862Z,101240.16
2018-07-10T14:20:47.838Z,101242.18
2018-07-10T14:23:16.481Z,101235.09
2018-07-10T14:25:45.623Z,101235.66
2018-07-10T14:28:14.255Z,101230.17
2018-07-10T14:33:30.545Z,101225.03
2018-07-10T14:35:59.219Z,101214.76
2018-07-10T14:38:30.024Z,101217.42
2018-07-10T14:41:09.816Z,101219.69
2018-07-10T14:43:43.869Z,101226.97
2018-07-10T14:46:16.429Z,101222.64
2018-07-10T14:48:58.550Z,101225.55
2018-07-10T14:51:40.561Z,101217.31
2018-07-10T14:54:11.570Z,101224.20
2018-07-10T14:56:41.411Z,101209.89
2018-07-10T14:59:10.766Z,101205.27
2018-07-10T15:01:40.717Z,101213.91
2018-07-10T15:04:09.655Z,101202.20
2018-07-10T15:06:38.326Z,101201.73
2018-07-10T15:09:09.582Z,101201.95
2018-07-10T15:11:39.536Z,101197.13
2018-07-10T15:14:09.297Z,101204.64
2018-07-10T15:16:43.397Z,101197.78
2018-07-10T15:19:12.094Z,101192.26
2018-07-10T15:21:41.992Z,101193.22
2018-07-10T15:24:10.857Z,101184.70
2018-07-10T15:26:40.006Z,101191.62
2018-07-10T15:29:08.880Z,101205.61
2018-07-10T15:31:37.542Z,101198.85
2018-07-10T15:34:06.083Z,101200.52
2018-07-10T15:36:39.633Z,101205.13
2018-07-10T15:39:08.353Z,101205.89
2018-07-10T15:41:36.937Z,101202.41
2018-07-10T15:44:05.837Z,101200.02
2018-07-10T15:46:34.569Z,101203.40
2018-07-10T15:49:03.320Z,101183.78
2018-07-10T15:51:32.229Z,101184.38
2018-07-10T15:54:00.793Z,101176.41
2018-07-10T15:56:29.568Z,101171.21
2018-07-10T15:58:58.096Z,101165.44
2018-07-10T16:01:26.855Z,101172.30
2018-07-10T16:03:55.845Z,101176.57
2018-07-10T16:06:25.789Z,101169.11
2018-07-10T16:09:05.114Z,101163.30
2018-07-10T16:11:35.301Z,101166.72
2018-07-10T16:14:04.497Z,101155.60
2018-07-10T16:16:33.637Z,101153.94
2018-07-10T16:19:07.692Z,101141.53
2018-07-10T16:21:49.259Z,101132.78
2018-07-10T16:24:19.548Z,101133.20
2018-07-10T16:26:48.382Z,101137.83
2018-07-10T16:31:50.187Z,101154.45
2018-07-10T16:34:18.952Z,101158.27
2018-07-10T16:36:47.563Z,101142.05
2018-07-10T16:39:16.238Z,101147.12
2018-07-10T16:41:50.494Z,101150.94
2018-07-10T16:44:18.892Z,101151.28
2018-07-10T16:46:57.961Z,101151.05
2018-07-10T16:49:39.245Z,101150.55
2018-07-10T16:53:20.597Z,101146.69
2018-07-10T16:55:49.202Z,101155.52
2018-07-10T16:58:17.836Z,101147.67
2018-07-10T17:00:46.802Z,101162.49
2018-07-10T17:03:16.011Z,101166.85
2018-07-10T17:05:44.741Z,101172.92
2018-07-10T17:08:13.103Z,101171.59
2018-07-10T17:10:41.992Z,101185.40
2018-07-10T17:13:10.645Z,101183.07
2018-07-10T17:15:39.334Z,101179.97
2018-07-10T17:18:08.275Z,101186.50
2018-07-10T17:20:36.720Z,101178.23
2018-07-10T17:23:05.428Z,101174.07
2018-07-10T17:25:34.365Z,101175.64
2018-07-10T17:28:03.221Z,101192.72
2018-07-10T17:30:32.110Z,101188.99
2018-07-10T17:33:00.804Z,101186.50
2018-07-10T17:35:29.452Z,101189.25
2018-07-10T17:37:58.187Z,101199.84
2018-07-10T17:40:26.807Z,101194.66
2018-07-10T17:42:55.475Z,101201.66
2018-07-10T17:45:24.488Z,101198.73
2018-07-10T17:47:53.348Z,101201.88
2018-07-10T17:50:22.132Z,101193.65
2018-07-10T17:52:50.957Z,101199.30
2018-07-10T17:55:20.276Z,101205.51
2018-07-10T17:57:55.614Z,101197.95
2018-07-10T18:00:24.274Z,101201.44
2018-07-10T18:02:52.895Z,101205.84
2018-07-10T18:05:21.811Z,101202.23
2018-07-10T18:07:50.248Z,101206.95
2018-07-10T18:10:18.948Z,101212.61
2018-07-10T18:12:47.677Z,101226.68
2018-07-10T18:15:16.467Z,101212.95
2018-07-10T18:17:45.108Z,101214.41
2018-07-10T18:20:14.078Z,101225.91
2018-07-10T18:22:42.938Z,101227.38
2018-07-10T18:25:11.839Z,101230.56
2018-07-10T18:27:40.798Z,101240.45
2018-07-10T18:30:09.488Z,101240.44
2018-07-10T18:32:38.178Z,101239.55
2018-07-10T18:35:07.076Z,101249.45
2018-07-10T18:37:36.022Z,101248.56
2018-07-10T18:40:04.913Z,101250.03
2018-07-10T18:42:33.960Z,101258.49
2018-07-10T18:45:02.414Z,101261.85
2018-07-10T18:47:31.031Z,101255.99
2018-07-10T18:50:00.388Z,101263.19
2018-07-10T18:52:30.559Z,101265.89
2018-07-10T18:54:59.732Z,101258.91
2018-07-10T18:58:09.954Z,101260.72
2018-07-10T19:01:30.340Z,101267.15
2018-07-10T19:04:01.936Z,101266.69
2018-07-10T19:06:30.911Z,101270.50
2018-07-10T19:08:59.683Z,101268.26
2018-07-10T19:11:28.505Z,101278.74
2018-07-10T19:14:01.490Z,101272.31
2018-07-10T19:16:31.564Z,101281.78
2018-07-10T19:19:04.236Z,101285.81
2018-07-10T19:21:39.340Z,101283.69
2018-07-10T19:24:15.161Z,101278.28
2018-07-10T19:26:44.476Z,101286.95
2018-07-10T19:29:48.147Z,101284.67
2018-07-10T19:32:17.204Z,101287.63
2018-07-10T19:34:51.109Z,101286.02
2018-07-10T19:37:20.342Z,101291.98
2018-07-10T19:39:49.344Z,101293.45
2018-07-10T19:42:18.601Z,101297.39
2018-07-10T19:44:47.352Z,101306.59
2018-07-10T19:47:16.134Z,101311.33
2018-07-10T19:49:48.469Z,101310.64
2018-07-10T19:52:17.881Z,101326.97
2018-07-10T19:54:46.756Z,101331.64
2018-07-10T19:57:27.246Z,101334.59
2018-07-10T19:59:55.935Z,101334.05
2018-07-10T20:02:24.728Z,101337.61
2018-07-10T20:05:06.381Z,101345.66
2018-07-10T20:07:41.523Z,101356.58
2018-07-10T20:10:16.377Z,101344.33
2018-07-10T20:13:01.822Z,101351.95
2018-07-10T20:16:43.057Z,101360.72
2018-07-10T20:20:21.924Z,101359.12
2018-07-10T20:24:07.147Z,101369.78
2018-07-10T20:26:47.453Z,101369.05
2018-07-10T20:30:02.309Z,101365.91
2018-07-10T20:32:41.177Z,101366.75
2018-07-10T20:35:19.897Z,101372.15
2018-07-10T20:37:49.866Z,101364.92
2018-07-10T20:40:38.600Z,101370.58
2018-07-10T20:43:09.429Z,101372.08
2018-07-10T20:45:44.615Z,101379.13
2018-07-10T20:49:26.985Z,101383.75
2018-07-10T20:52:06.063Z,101396.30
2018-07-10T20:54:43.830Z,101397.10
2018-07-10T20:57:22.272Z,101390.67
2018-07-10T21:00:02.313Z,101396.65
2018-07-10T21:05:10.797Z,101399.83
2018-07-10T21:07:57.585Z,101401.86
2018-07-10T21:10:42.627Z,101406.95
2018-07-10T21:14:25.897Z,101413.61
2018-07-10T21:17:05.055Z,101414.52
2018-07-10T21:19:53.254Z,101417.92
2018-07-10T21:24:46.145Z,101415.06
2018-07-10T21:28:33.294Z,101414.00
2018-07-10T21:31:20.801Z,101412.97
2018-07-10T21:34:14.396Z,101411.53
2018-07-10T21:36:50.642Z,101414.80
2018-07-10T21:41:46.636Z,101414.00
2018-07-10T21:45:37.452Z,101414.80
2018-07-10T21:49:27.481Z,101414.84
2018-07-10T21:51:56.223Z,101413.88
2018-07-10T21:54:25.153Z,101414.84
2018-07-10T21:56:53.885Z,101418.55
2018-07-10T21:59:24.179Z,101422.11
2018-07-10T22:01:59.605Z,101421.73
2018-07-10T22:04:30.761Z,101421.71
2018-07-10T22:07:01.481Z,101421.97
2018-07-10T22:09:33.874Z,101432.49
2018-07-10T22:12:06.351Z,101437.05
2018-07-10T22:14:35.217Z,101431.58
2018-07-10T22:17:07.782Z,101431.64
2018-07-10T22:19:40.337Z,101432.06
2018-07-10T22:22:09.191Z,101433.94
2018-07-10T22:24:38.534Z,101429.58
2018-07-10T22:27:07.476Z,101429.89
2018-07-10T22:29:41.780Z,101438.34
2018-07-10T22:32:16.062Z,101438.25
2018-07-10T22:34:44.638Z,101433.73
2018-07-10T22:37:14.068Z,101440.63
2018-07-10T22:39:43.732Z,101435.30
2018-07-10T22:42:12.143Z,101434.86
2018-07-10T22:44:46.690Z,101443.69
2018-07-10T22:47:18.812Z,101439.02
2018-07-10T22:49:48.648Z,101435.35
2018-07-10T22:52:17.947Z,101440.02
2018-07-10T22:54:46.624Z,101448.34
2018-07-10T22:57:15.589Z,101448.34
2018-07-10T22:59:44.771Z,101449.91
2018-07-10T23:02:13.640Z,101455.43
2018-07-10T23:04:42.373Z,101457.77
2018-07-10T23:07:16.869Z,101455.70
2018-07-10T23:09:46.672Z,101456.10
2018-07-10T23:12:15.456Z,101454.43
2018-07-10T23:14:44.249Z,101458.25
2018-07-10T23:17:13.101Z,101452.64
2018-07-10T23:19:41.804Z,101456.31
2018-07-10T23:22:10.418Z,101459.37
2018-07-10T23:24:39.372Z,101459.37
2018-07-10T23:27:08.151Z,101455.09
2018-07-10T23:29:39.027Z,101460.48
2018-07-10T23:32:08.607Z,101452.59
2018-07-10T23:34:37.482Z,101459.31
2018-07-10T23:37:12.870Z,101456.08
2018-07-10T23:39:51.543Z,101460.12
2018-07-10T23:42:29.362Z,101454.91
2018-07-10T23:45:01.503Z,101460.37
2018-07-10T23:47:32.301Z,101460.80
2018-07-10T23:50:36.581Z,101451.44
2018-07-10T23:53:21.633Z,101450.83
2018-07-10T23:55:49.915Z,101444.27
2018-07-10T23:58:18.828Z,101446.00
